createdAt,value
2018-05-16T00:01:18.485Z,11.90
2018-05-16T00:03:46.357Z,11.90
2018-05-16T00:06:14.175Z,11.90
2018-05-16T00:08:42.815Z,11.90
2018-05-16T00:11:10.653Z,11.90
2018-05-16T00:13:38.475Z,11.90
2018-05-16T00:16:06.321Z,11.90
2018-05-16T00:18:35.125Z,11.80
2018-05-16T00:23:54.486Z,11.80
2018-05-16T00:26:22.328Z,11.80
2018-05-16T00:28:50.271Z,11.90
2018-05-16T00:31:18.866Z,11.90
2018-05-16T00:33:47.538Z,11.90
2018-05-16T00:36:16.218Z,11.80
2018-05-16T00:38:44.918Z,11.70
2018-05-16T00:48:12.135Z,11.80
2018-05-16T00:50:40.139Z,11.80
2018-05-16T00:53:08.685Z,11.80
2018-05-16T00:55:36.580Z,11.80
2018-05-16T00:58:04.410Z,11.80
2018-05-16T01:00:32.993Z,11.80
2018-05-16T01:08:55.877Z,11.80
2018-05-16T01:11:24.492Z,11.80
2018-05-16T01:13:52.367Z,11.80
2018-05-16T01:16:20.178Z,11.80
2018-05-16T01:18:48.773Z,11.70
2018-05-16T01:21:16.736Z,11.70
2018-05-16T01:23:45.320Z,11.80
2018-05-16T01:26:15.652Z,11.80
2018-05-16T01:28:44.264Z,11.80
2018-05-16T01:31:12.100Z,11.80
2018-05-16T01:37:31.643Z,11.80
2018-05-16T01:39:59.586Z,11.90
2018-05-16T01:42:29.869Z,11.90
2018-05-16T01:44:57.690Z,11.90
2018-05-16T01:47:25.507Z,11.80
2018-05-16T01:49:53.583Z,11.80
2018-05-16T01:52:21.509Z,11.90
2018-05-16T01:58:29.187Z,11.90
2018-05-16T02:00:57.041Z,11.90
2018-05-16T02:03:24.933Z,11.90
2018-05-16T02:05:53.593Z,12.00
2018-05-16T02:08:21.448Z,12.00
2018-05-16T02:10:49.633Z,12.00
2018-05-16T02:19:01.328Z,11.90
2018-05-16T02:21:29.301Z,11.90
2018-05-16T02:23:57.043Z,12.00
2018-05-16T02:26:24.896Z,12.00
2018-05-16T02:28:53.479Z,12.00
2018-05-16T02:31:21.343Z,12.00
2018-05-16T02:33:50.061Z,12.00
2018-05-16T02:36:17.975Z,12.00
2018-05-16T02:38:45.877Z,12.00
2018-05-16T02:41:13.805Z,12.00
2018-05-16T02:43:42.405Z,11.90
2018-05-16T02:49:02.959Z,11.80
2018-05-16T02:51:30.895Z,11.80
2018-05-16T02:53:58.811Z,11.80
2018-05-16T02:56:26.709Z,11.80
2018-05-16T02:58:54.631Z,11.90
2018-05-16T03:01:22.583Z,11.90
2018-05-16T03:06:31.577Z,11.90
2018-05-16T03:08:59.427Z,11.90
2018-05-16T03:11:27.318Z,11.90
2018-05-16T03:13:55.192Z,11.90
2018-05-16T03:16:23.100Z,11.90
2018-05-16T03:18:51.109Z,12.00
2018-05-16T03:21:18.997Z,12.00
2018-05-16T03:23:46.865Z,12.00
2018-05-16T03:26:14.784Z,11.90
2018-05-16T03:28:42.642Z,11.90
2018-05-16T03:31:10.490Z,11.90
2018-05-16T03:33:38.324Z,11.90
2018-05-16T03:36:06.275Z,11.90
2018-05-16T03:38:34.143Z,11.90
2018-05-16T03:41:01.970Z,11.90
2018-05-16T03:43:29.806Z,11.80
2018-05-16T03:45:58.523Z,11.70
2018-05-16T03:48:27.104Z,11.70
2018-05-16T03:50:55.009Z,11.70
2018-05-16T03:53:24.083Z,11.60
2018-05-16T03:55:51.897Z,11.60
2018-05-16T03:58:25.626Z,11.70
2018-05-16T04:01:00.193Z,11.70
2018-05-16T04:03:33.947Z,11.70
2018-05-16T04:06:02.548Z,11.80
2018-05-16T04:08:31.120Z,11.90
2018-05-16T04:10:59.807Z,11.90
2018-05-16T04:13:28.660Z,12.00
2018-05-16T04:15:57.406Z,11.90
2018-05-16T04:18:25.240Z,11.90
2018-05-16T04:20:53.929Z,11.90
2018-05-16T04:23:21.825Z,11.90
2018-05-16T04:25:49.711Z,11.90
2018-05-16T04:28:33.120Z,11.90
2018-05-16T04:31:00.968Z,11.90
2018-05-16T04:33:29.559Z,12.00
2018-05-16T04:35:57.450Z,11.90
2018-05-16T04:38:25.601Z,12.00
2018-05-16T04:40:53.539Z,12.00
2018-05-16T04:43:22.168Z,12.00
2018-05-16T04:45:50.048Z,12.00
2018-05-16T04:48:18.716Z,12.10
2018-05-16T04:50:48.255Z,12.00
2018-05-16T04:53:16.903Z,12.20
2018-05-16T04:55:45.596Z,12.20
2018-05-16T04:58:13.529Z,12.20
2018-05-16T05:00:41.434Z,12.20
2018-05-16T05:03:09.256Z,12.30
2018-05-16T05:08:19.794Z,12.40
2018-05-16T05:10:47.658Z,12.40
2018-05-16T05:13:15.507Z,12.50
2018-05-16T05:15:43.345Z,12.50
2018-05-16T05:18:11.293Z,12.60
2018-05-16T05:20:39.879Z,12.80
2018-05-16T05:23:07.766Z,12.80
2018-05-16T05:25:36.363Z,12.80
2018-05-16T05:28:04.607Z,12.80
2018-05-16T05:30:32.444Z,12.90
2018-05-16T05:33:00.319Z,13.20
2018-05-16T05:35:28.199Z,13.30
2018-05-16T05:37:56.052Z,13.30
2018-05-16T05:40:23.887Z,13.40
2018-05-16T05:42:51.741Z,13.50
2018-05-16T05:45:20.335Z,13.50
2018-05-16T05:50:29.907Z,13.70
2018-05-16T05:52:57.770Z,13.90
2018-05-16T05:55:25.650Z,13.90
2018-05-16T05:57:56.762Z,13.90
2018-05-16T06:00:25.357Z,14.00
2018-05-16T06:02:53.240Z,13.90
2018-05-16T06:05:21.133Z,13.80
2018-05-16T06:07:48.940Z,13.90
2018-05-16T06:17:27.235Z,14.00
2018-05-16T06:19:55.174Z,14.10
2018-05-16T06:22:23.668Z,14.20
2018-05-16T06:24:51.581Z,14.10
2018-05-16T06:27:19.595Z,14.10
2018-05-16T06:29:47.442Z,13.80
2018-05-16T06:32:16.069Z,13.60
2018-05-16T06:43:58.551Z,13.80
2018-05-16T06:46:26.483Z,13.80
2018-05-16T06:48:54.363Z,13.80
2018-05-16T06:51:22.943Z,13.80
2018-05-16T06:53:51.589Z,13.90
2018-05-16T06:56:19.443Z,13.90
2018-05-16T06:58:47.259Z,14.00
2018-05-16T07:04:09.545Z,14.10
2018-05-16T07:06:37.362Z,14.10
2018-05-16T07:09:05.174Z,14.00
2018-05-16T07:11:33.018Z,14.10
2018-05-16T07:14:01.624Z,14.90
2018-05-16T07:16:29.544Z,14.80
2018-05-16T07:18:57.448Z,15.20
2018-05-16T08:40:52.007Z,15.30
2018-05-16T08:43:35.627Z,15.10
2018-05-16T08:46:04.657Z,15.30
2018-05-16T08:48:32.559Z,15.50
2018-05-16T08:51:01.222Z,15.60
2018-05-16T08:53:29.103Z,15.60
2018-05-16T08:55:57.712Z,15.60
2018-05-16T08:58:25.640Z,15.50
2018-05-16T09:00:54.288Z,15.70
2018-05-16T09:03:22.100Z,15.70
2018-05-16T09:05:50.706Z,16.20
2018-05-16T09:08:18.585Z,16.20
2018-05-16T09:10:47.284Z,17.10
2018-05-16T09:13:15.151Z,17.10
2018-05-16T09:15:43.125Z,17.10
2018-05-16T09:18:12.149Z,17.10
2018-05-16T09:20:40.028Z,16.90
2018-05-16T09:23:07.872Z,17.10
2018-05-16T09:25:35.840Z,16.30
2018-05-16T09:28:03.700Z,15.80
2018-05-16T09:30:31.681Z,16.00
2018-05-16T09:32:59.509Z,16.20
2018-05-16T09:35:27.331Z,16.30
2018-05-16T09:37:55.218Z,16.50
2018-05-16T09:40:23.257Z,16.70
2018-05-16T09:42:51.832Z,17.60
2018-05-16T09:45:19.692Z,17.60
2018-05-16T09:47:47.516Z,18.00
2018-05-16T09:50:15.463Z,18.00
2018-05-16T09:52:44.119Z,18.10
2018-05-16T09:55:11.953Z,18.10
2018-05-16T09:57:39.848Z,18.10
2018-05-16T10:03:41.968Z,18.20
2018-05-16T10:06:10.556Z,17.70
2018-05-16T10:08:38.355Z,17.70
2018-05-16T10:11:06.211Z,17.80
2018-05-16T10:13:34.052Z,17.80
2018-05-16T10:16:02.126Z,17.50
2018-05-16T10:18:29.999Z,17.40
2018-05-16T10:20:57.851Z,17.00
2018-05-16T10:23:25.740Z,16.50
2018-05-16T10:25:53.694Z,16.50
2018-05-16T10:28:21.637Z,16.70
2018-05-16T10:30:49.627Z,16.60
2018-05-16T10:33:17.476Z,16.30
2018-05-16T10:35:45.338Z,16.20
2018-05-16T10:38:13.937Z,16.10
2018-05-16T10:40:41.913Z,16.10
2018-05-16T10:43:09.867Z,15.90
2018-05-16T10:45:41.589Z,15.80
2018-05-16T10:48:25.476Z,15.70
2018-05-16T10:50:53.296Z,15.80
2018-05-16T10:53:21.113Z,15.60
2018-05-16T10:55:48.939Z,15.70
2018-05-16T10:58:16.752Z,15.60
2018-05-16T11:00:44.601Z,15.50
2018-05-16T11:03:12.423Z,15.60
2018-05-16T11:09:05.731Z,15.90
2018-05-16T11:11:33.559Z,15.90
2018-05-16T11:14:02.219Z,16.10
2018-05-16T11:16:30.042Z,16.10
2018-05-16T11:18:58.064Z,16.30
2018-05-16T11:21:26.774Z,16.20
2018-05-16T11:23:54.547Z,16.20
2018-05-16T11:26:22.726Z,16.30
2018-05-16T11:28:50.544Z,16.50
2018-05-16T11:31:19.226Z,16.40
2018-05-16T11:33:47.827Z,16.20
2018-05-16T11:43:18.305Z,16.20
2018-05-16T11:45:46.135Z,16.10
2018-05-16T11:48:13.952Z,15.90
2018-05-16T11:50:42.554Z,16.20
2018-05-16T11:53:10.396Z,16.20
2018-05-16T11:58:20.095Z,16.30
2018-05-16T12:00:47.922Z,16.20
2018-05-16T12:03:15.779Z,16.00
2018-05-16T12:05:43.723Z,16.00
2018-05-16T12:08:11.556Z,16.20
2018-05-16T12:10:39.376Z,16.20
2018-05-16T12:13:07.190Z,16.30
2018-05-16T12:15:35.014Z,16.50
2018-05-16T12:18:03.613Z,16.20
2018-05-16T12:20:31.548Z,16.20
2018-05-16T12:23:00.281Z,16.30
2018-05-16T12:25:28.116Z,16.30
2018-05-16T12:30:36.732Z,16.70
2018-05-16T12:33:04.653Z,16.70
2018-05-16T12:35:32.573Z,16.60
2018-05-16T12:38:01.224Z,16.10
2018-05-16T12:40:29.055Z,16.10
2018-05-16T12:43:02.851Z,16.00
2018-05-16T12:45:31.482Z,15.90
2018-05-16T12:47:59.433Z,15.90
2018-05-16T12:50:27.295Z,16.00
2018-05-16T12:52:55.119Z,16.10
2018-05-16T12:55:22.939Z,16.10
2018-05-16T12:57:50.876Z,16.10
2018-05-16T13:00:19.475Z,16.40
2018-05-16T13:02:47.307Z,16.40
2018-05-16T13:05:15.138Z,16.40
2018-05-16T13:07:43.300Z,16.40
2018-05-16T13:10:11.116Z,16.30
2018-05-16T13:12:38.925Z,16.30
2018-05-16T13:15:06.811Z,16.30
2018-05-16T13:17:34.647Z,16.40
2018-05-16T13:20:02.626Z,16.50
2018-05-16T13:22:30.483Z,16.70
2018-05-16T13:24:58.624Z,16.80
2018-05-16T13:27:26.494Z,16.90
2018-05-16T13:33:32.709Z,17.00
2018-05-16T13:36:01.288Z,17.20
2018-05-16T13:38:29.869Z,17.30
2018-05-16T13:40:58.667Z,17.10
2018-05-16T13:43:26.533Z,17.00
2018-05-16T13:45:55.138Z,17.10
2018-05-16T13:48:23.044Z,17.10
2018-05-16T13:50:50.872Z,17.10
2018-05-16T13:53:18.694Z,17.10
2018-05-16T13:55:47.303Z,16.90
2018-05-16T13:58:15.132Z,16.90
2018-05-16T14:00:43.751Z,16.80
2018-05-16T14:03:12.355Z,16.70
2018-05-16T14:05:40.174Z,16.70
2018-05-16T14:08:08.010Z,16.80
2018-05-16T14:10:35.854Z,16.90
2018-05-16T14:13:03.689Z,17.00
2018-05-16T14:15:32.293Z,17.30
2018-05-16T14:18:00.328Z,17.20
2018-05-16T14:20:28.141Z,17.00
2018-05-16T14:22:55.956Z,17.10
2018-05-16T14:25:25.124Z,17.00
2018-05-16T14:27:52.980Z,17.00
2018-05-16T14:30:20.804Z,16.90
2018-05-16T14:32:49.399Z,17.00
2018-05-16T14:38:01.452Z,16.70
2018-05-16T14:40:30.339Z,16.80
2018-05-16T14:42:58.400Z,16.80
2018-05-16T14:45:26.165Z,17.50
2018-05-16T14:47:54.077Z,17.90
2018-05-16T14:50:22.726Z,18.00
2018-05-16T14:52:50.560Z,17.90
2018-05-16T14:55:18.436Z,17.90
2018-05-16T14:57:47.035Z,17.50
2018-05-16T15:00:14.856Z,17.50
2018-05-16T15:02:42.827Z,17.50
2018-05-16T15:05:11.456Z,17.10
2018-05-16T15:07:39.513Z,17.10
2018-05-16T15:10:07.404Z,17.20
2018-05-16T15:12:35.279Z,17.20
2018-05-16T15:15:03.155Z,17.40
2018-05-16T15:17:31.901Z,17.50
2018-05-16T15:20:00.366Z,17.50
2018-05-16T15:22:28.217Z,17.70
2018-05-16T15:24:56.156Z,17.80
2018-05-16T15:27:24.133Z,17.70
2018-05-16T15:29:51.931Z,17.70
2018-05-16T15:32:20.508Z,17.40
2018-05-16T15:38:35.563Z,17.40
2018-05-16T15:41:03.471Z,17.40
2018-05-16T15:43:32.157Z,17.60
2018-05-16T15:46:00.778Z,17.90
2018-05-16T15:48:28.611Z,17.80
2018-05-16T15:50:56.531Z,18.00
2018-05-16T15:53:24.432Z,17.80
2018-05-16T15:55:52.250Z,17.70
2018-05-16T16:01:00.923Z,17.90
2018-05-16T16:03:28.911Z,18.00
2018-05-16T16:05:57.082Z,18.10
2018-05-16T16:08:24.920Z,18.10
2018-05-16T16:10:52.811Z,18.30
2018-05-16T16:13:21.410Z,18.30
2018-05-16T16:15:49.298Z,18.30
2018-05-16T16:18:17.151Z,18.10
2018-05-16T16:20:45.843Z,17.80
2018-05-16T16:23:15.796Z,17.70
2018-05-16T16:25:43.628Z,17.60
2018-05-16T16:28:11.526Z,17.60
2018-05-16T16:33:20.151Z,17.10
2018-05-16T16:35:47.978Z,17.10
2018-05-16T16:38:15.880Z,17.00
2018-05-16T16:40:59.275Z,16.90
2018-05-16T16:46:07.926Z,17.10
2018-05-16T16:48:36.563Z,17.90
2018-05-16T16:51:04.513Z,17.90
2018-05-16T16:53:32.340Z,18.20
2018-05-16T17:03:05.343Z,17.80
2018-05-16T17:05:33.243Z,17.60
2018-05-16T17:08:01.842Z,17.30
2018-05-16T17:20:22.328Z,17.10
2018-05-16T17:22:51.571Z,17.00
2018-05-16T17:25:19.417Z,17.10
2018-05-16T17:27:47.246Z,17.00
2018-05-16T17:30:15.077Z,16.90
2018-05-16T17:32:44.004Z,16.90
2018-05-16T17:35:11.831Z,17.00
2018-05-16T17:37:39.681Z,16.90
2018-05-16T17:40:07.484Z,16.90
2018-05-16T17:42:36.207Z,16.80
2018-05-16T17:45:04.063Z,16.80
2018-05-16T17:47:31.959Z,16.80
2018-05-16T17:49:59.859Z,16.70
2018-05-16T17:52:30.115Z,16.70
2018-05-16T17:54:58.016Z,16.70
2018-05-16T17:57:25.889Z,16.60
2018-05-16T17:59:53.720Z,16.60
2018-05-16T18:02:21.646Z,16.60
2018-05-16T18:04:49.810Z,16.50
2018-05-16T18:07:17.724Z,16.50
2018-05-16T18:09:45.484Z,16.40
2018-05-16T18:12:13.320Z,16.30
2018-05-16T18:14:56.095Z,16.30
2018-05-16T18:17:27.910Z,16.30
2018-05-16T18:29:04.053Z,16.10
2018-05-16T18:31:32.690Z,16.10
2018-05-16T18:34:00.623Z,16.10
2018-05-16T18:36:28.540Z,16.10
2018-05-16T18:38:56.486Z,16.10
2018-05-16T18:41:24.320Z,16.10
2018-05-16T18:43:52.913Z,16.10
2018-05-16T18:46:20.752Z,16.00
2018-05-16T18:48:48.577Z,16.00
2018-05-16T18:51:16.497Z,15.90
2018-05-16T18:53:45.100Z,15.60
2018-05-16T18:56:13.624Z,15.60
2018-05-16T18:58:41.653Z,15.40
2018-05-16T19:08:12.030Z,15.20
2018-05-16T19:10:40.652Z,15.00
2018-05-16T19:13:08.509Z,15.00
2018-05-16T19:15:36.582Z,15.00
2018-05-16T19:18:04.469Z,15.00
2018-05-16T19:20:48.344Z,14.90
2018-05-16T19:23:16.299Z,14.90
2018-05-16T19:25:44.287Z,14.90
2018-05-16T19:28:12.139Z,14.90
2018-05-16T19:30:39.962Z,14.90
2018-05-16T19:33:07.866Z,14.90
2018-05-16T19:35:35.756Z,14.80
2018-05-16T19:38:04.420Z,14.90
2018-05-16T19:40:33.819Z,14.80
2018-05-16T19:43:02.488Z,14.80
2018-05-16T19:45:30.468Z,14.70
2018-05-16T19:47:59.059Z,14.70
2018-05-16T19:53:58.203Z,14.70
2018-05-16T19:56:27.195Z,14.70
2018-05-16T19:58:55.913Z,14.70
2018-05-16T20:01:23.738Z,14.70
2018-05-16T20:03:51.693Z,14.60
2018-05-16T20:06:19.526Z,14.60
2018-05-16T20:08:47.424Z,14.70
2018-05-16T20:11:16.168Z,14.50
2018-05-16T20:13:44.039Z,14.50
2018-05-16T20:16:11.935Z,14.60
2018-05-16T20:18:40.713Z,14.50
2018-05-16T20:21:08.570Z,14.50
2018-05-16T20:23:36.562Z,14.50
2018-05-16T20:26:05.166Z,14.30
2018-05-16T20:28:33.077Z,14.30
2018-05-16T20:31:00.916Z,14.30
2018-05-16T20:33:28.739Z,14.30
2018-05-16T20:35:56.543Z,14.30
2018-05-16T20:38:25.516Z,14.30
2018-05-16T20:40:54.099Z,14.30
2018-05-16T20:43:22.712Z,14.20
2018-05-16T20:45:50.569Z,14.20
2018-05-16T20:48:18.415Z,14.30
2018-05-16T20:50:46.270Z,14.20
2018-05-16T20:53:14.922Z,14.20
2018-05-16T20:55:42.754Z,14.20
2018-05-16T20:58:10.611Z,14.20
2018-05-16T21:00:38.467Z,14.20
2018-05-16T21:03:07.261Z,14.20
2018-05-16T21:05:35.103Z,14.10
2018-05-16T21:08:03.700Z,14.10
2018-05-16T21:10:32.340Z,14.10
2018-05-16T21:13:00.177Z,14.10
2018-05-16T21:15:28.113Z,14.00
2018-05-16T21:17:56.728Z,14.00
2018-05-16T21:20:24.559Z,14.00
2018-05-16T21:22:53.284Z,14.00
2018-05-16T21:25:21.096Z,14.00
2018-05-16T21:27:48.923Z,13.90
2018-05-16T21:30:16.743Z,13.90
2018-05-16T21:32:44.567Z,13.90
2018-05-16T21:35:12.453Z,13.90
2018-05-16T21:37:40.275Z,13.90
2018-05-16T21:40:08.282Z,14.00
2018-05-16T21:42:36.189Z,13.90
2018-05-16T21:45:04.840Z,13.90
2018-05-16T21:47:32.667Z,13.90
2018-05-16T21:50:01.237Z,13.90
2018-05-16T21:52:29.062Z,13.90
2018-05-16T21:54:57.009Z,13.90
2018-05-16T21:57:24.833Z,13.90
2018-05-16T21:59:55.080Z,13.90
2018-05-16T22:02:23.041Z,13.80
2018-05-16T22:04:50.910Z,13.80
2018-05-16T22:07:18.755Z,13.80
2018-05-16T22:09:47.431Z,13.70
2018-05-16T22:12:15.287Z,13.70
2018-05-16T22:14:44.001Z,13.60
2018-05-16T22:17:11.832Z,13.60
2018-05-16T22:19:39.703Z,13.60
2018-05-16T22:22:07.644Z,13.60
2018-05-16T22:24:35.509Z,13.50
2018-05-16T22:27:03.393Z,13.50
2018-05-16T22:29:31.237Z,13.50
2018-05-16T22:32:04.714Z,13.40
2018-05-16T22:43:47.801Z,13.40
2018-05-16T22:46:15.770Z,13.50
2018-05-16T22:48:44.435Z,13.40
2018-05-16T22:51:13.093Z,13.40
2018-05-16T22:53:40.918Z,13.40
2018-05-16T22:56:08.904Z,13.40
2018-05-16T22:58:36.814Z,13.40
2018-05-16T23:01:06.771Z,13.30
2018-05-16T23:03:34.609Z,13.40
2018-05-16T23:06:03.267Z,13.40
2018-05-16T23:08:31.095Z,13.30
2018-05-16T23:10:59.841Z,13.30
2018-05-16T23:13:28.109Z,13.30
2018-05-16T23:15:56.101Z,13.30
2018-05-16T23:18:23.978Z,13.30
2018-05-16T23:20:51.878Z,13.20
2018-05-16T23:23:19.794Z,13.20
2018-05-16T23:25:47.629Z,13.20
2018-05-16T23:28:15.491Z,13.30
2018-05-16T23:30:43.335Z,13.30
2018-05-16T23:33:11.181Z,13.30
2018-05-16T23:35:39.883Z,13.30
2018-05-16T23:38:07.722Z,13.30
2018-05-16T23:40:36.686Z,13.30
2018-05-16T23:43:04.540Z,13.30
2018-05-16T23:48:13.971Z,13.20
2018-05-16T23:50:41.812Z,13.20
2018-05-16T23:53:09.724Z,13.10
2018-05-16T23:55:37.579Z,13.10
2018-05-16T23:58:05.443Z,13.20
